Time;durP1;ratioP1;P1;durP2;ratioP2;P2;SDS_P1;SDS_P2;PMS_P1;PMS_P2;Temp;Humidity;BMP_temperature;BMP_pressure;BME280_temperature;BME280_humidity;BME280_pressure;Samples;Min_cycle;Max_cycle;Signal;HPM_P1;HPM_P2
2021/12/01 00:00:52;;;;;;;4.10;3.43;;;5.50;99.90;;;;;;5026739;28;20182;-69
2021/12/01 00:03:18;;;;;;;4.97;3.27;;;5.60;99.90;;;;;;5028669;28;20913;-71
2021/12/01 00:05:43;;;;;;;2.67;2.47;;;5.50;99.90;;;;;;5028171;28;20420;-71
2021/12/01 00:08:09;;;;;;;3.70;3.40;;;5.40;99.90;;;;;;5029076;28;20633;-72
2021/12/01 00:10:36;;;;;;;3.70;3.20;;;5.30;99.90;;;;;;5028285;28;20632;-70
2021/12/01 00:13:05;;;;;;;3.00;2.70;;;5.40;99.90;;;;;;5021979;28;20178;-72
2021/12/01 00:15:31;;;;;;;4.23;3.77;;;5.30;99.90;;;;;;5027796;28;20435;-70
2021/12/01 00:17:57;;;;;;;6.20;3.23;;;5.30;99.90;;;;;;5027195;28;20528;-70
2021/12/01 00:20:23;;;;;;;4.93;3.40;;;5.20;99.90;;;;;;5027644;28;20451;-70
2021/12/01 00:22:50;;;;;;;3.80;3.00;;;5.20;99.90;;;;;;5039396;28;20189;-71
2021/12/01 00:25:18;;;;;;;4.77;3.43;;;5.20;99.90;;;;;;5033343;28;20928;-71
2021/12/01 00:27:46;;;;;;;5.60;3.40;;;5.20;99.90;;;;;;5024806;28;20471;-70
2021/12/01 00:30:12;;;;;;;3.83;3.40;;;5.20;99.90;;;;;;5027279;28;20523;-70
2021/12/01 00:32:38;;;;;;;3.30;3.00;;;5.20;99.90;;;;;;5026295;28;20425;-72
2021/12/01 00:35:05;;;;;;;5.23;3.63;;;5.20;99.90;;;;;;5026821;28;20873;-71
2021/12/01 00:37:31;;;;;;;4.50;3.80;;;5.20;99.90;;;;;;5028212;28;20935;-70
2021/12/01 00:39:57;;;;;;;7.00;3.93;;;5.20;99.90;;;;;;5027727;28;20447;-72
2021/12/01 00:42:22;;;;;;;4.43;3.23;;;5.20;99.90;;;;;;5027667;28;20794;-70
2021/12/01 00:44:55;;;;;;;4.43;3.60;;;5.30;99.90;;;;;;5026399;28;20181;-70
2021/12/01 00:47:23;;;;;;;5.20;3.13;;;5.20;99.90;;;;;;5026765;28;20206;-70
2021/12/01 00:49:49;;;;;;;4.40;3.77;;;5.20;99.90;;;;;;5027316;28;20456;-70
2021/12/01 00:52:14;;;;;;;3.37;2.50;;;5.40;99.90;;;;;;5036027;28;20875;-72
2021/12/01 00:54:40;;;;;;;4.47;3.30;;;5.20;99.90;;;;;;5029682;28;20184;-71
2021/12/01 00:57:06;;;;;;;4.70;3.30;;;5.30;99.90;;;;;;5028058;28;20209;-71
2021/12/01 00:59:31;;;;;;;5.90;3.47;;;5.30;99.90;;;;;;5025351;28;20506;-71
2021/12/01 01:01:58;;;;;;;4.77;3.00;;;5.20;99.90;;;;;;5026110;28;20316;-70
2021/12/01 01:04:24;;;;;;;4.40;3.30;;;5.10;99.90;;;;;;5026326;28;20236;-70
2021/12/01 01:06:49;;;;;;;3.80;3.30;;;5.20;99.90;;;;;;5026283;28;20459;-72
2021/12/01 01:09:16;;;;;;;3.83;3.33;;;5.20;99.90;;;;;;5027989;28;20507;-70
2021/12/01 01:17:19;;;;;;;4.13;3.60;;;5.30;99.90;;;;;;5028223;28;20451;-71
2021/12/01 01:19:45;;;;;;;5.10;3.07;;;5.30;99.90;;;;;;5027644;28;20416;-71
2021/12/01 01:22:10;;;;;;;4.30;3.03;;;5.30;99.90;;;;;;5033822;28;20423;-72
2021/12/01 01:24:36;;;;;;;5.80;3.30;;;5.30;99.90;;;;;;5036497;28;20963;-70
2021/12/01 01:27:02;;;;;;;3.17;2.80;;;5.30;99.90;;;;;;5024607;28;20205;-70
2021/12/01 01:29:28;;;;;;;3.77;3.07;;;5.30;99.90;;;;;;5033480;28;20177;-70
2021/12/01 01:31:55;;;;;;;4.83;2.87;;;5.60;99.90;;;;;;5035886;28;20476;-70
2021/12/01 01:34:23;;;;;;;3.67;2.67;;;5.70;99.90;;;;;;5027180;28;20576;-71
2021/12/01 01:36:49;;;;;;;7.63;3.10;;;5.30;99.90;;;;;;5023302;28;20578;-71
2021/12/01 01:39:15;;;;;;;4.73;2.30;;;5.30;99.90;;;;;;5026437;28;20428;-71
2021/12/01 01:41:41;;;;;;;3.47;2.97;;;5.60;99.90;;;;;;5027271;28;20436;-70
2021/12/01 01:44:06;;;;;;;2.33;2.13;;;3.70;99.90;;;;;;5024643;28;20430;-69
2021/12/01 01:46:34;;;;;;;6.83;3.27;;;5.30;99.90;;;;;;5025476;28;20186;-71
2021/12/01 01:49:08;;;;;;;3.10;2.80;;;5.30;99.90;;;;;;5026296;28;20186;-71
2021/12/01 01:51:34;;;;;;;3.93;3.30;;;5.40;99.90;;;;;;5007719;28;20820;-71
2021/12/01 01:54:01;;;;;;;7.30;3.17;;;5.50;99.90;;;;;;5026504;28;20888;-72
2021/12/01 01:56:27;;;;;;;7.70;3.50;;;5.40;99.90;;;;;;5026976;28;20479;-70
2021/12/01 01:58:54;;;;;;;3.90;2.60;;;5.40;99.90;;;;;;5025689;28;20435;-70
2021/12/01 02:01:43;;;;;;;8.27;3.80;;;5.40;99.90;;;;;;5025476;28;20535;-70
2021/12/01 02:04:13;;;;;;;5.40;3.20;;;5.40;99.90;;;;;;5021837;28;20547;-71
2021/12/01 02:06:39;;;;;;;3.30;3.00;;;5.40;99.90;;;;;;5037490;28;20798;-70
2021/12/01 02:09:06;;;;;;;3.10;2.80;;;5.40;99.90;;;;;;5036307;28;20432;-69
2021/12/01 02:11:31;;;;;;;2.87;2.43;;;5.40;99.90;;;;;;5025505;28;20219;-70
2021/12/01 02:13:57;;;;;;;4.40;2.90;;;5.30;99.90;;;;;;5029326;28;20528;-70
2021/12/01 02:16:23;;;;;;;9.57;3.27;;;5.30;99.90;;;;;;5030556;28;20217;-70
2021/12/01 02:18:49;;;;;;;3.67;3.37;;;5.50;99.90;;;;;;5031024;28;20240;-69
2021/12/01 02:21:27;;;;;;;5.77;3.07;;;5.30;99.90;;;;;;5030179;28;20605;-71
2021/12/01 02:23:54;;;;;;;3.07;2.43;;;5.30;99.90;;;;;;5027582;28;20510;-70
2021/12/01 02:26:22;;;;;;;9.30;4.30;;;5.30;99.90;;;;;;5030383;28;20424;-71
2021/12/01 02:28:51;;;;;;;10.77;3.93;;;5.60;99.90;;;;;;5030956;28;20772;-71
2021/12/01 02:31:17;;;;;;;5.00;3.63;;;5.30;99.90;;;;;;5029909;28;20460;-73
2021/12/01 02:33:43;;;;;;;5.00;3.10;;;5.30;99.90;;;;;;5030818;28;20420;-70
2021/12/01 02:36:13;;;;;;;4.37;3.90;;;5.20;99.90;;;;;;5035824;28;20180;-68
2021/12/01 02:38:40;;;;;;;4.83;3.73;;;5.20;99.90;;;;;;5041876;28;20439;-71
2021/12/01 02:41:07;;;;;;;3.40;3.00;;;5.20;99.90;;;;;;5031312;28;20440;-70
2021/12/01 02:43:33;;;;;;;3.77;3.20;;;5.40;99.90;;;;;;5028808;28;20994;-70
2021/12/01 02:45:59;;;;;;;4.40;3.37;;;5.40;99.90;;;;;;5030499;28;20424;-70
2021/12/01 02:48:24;;;;;;;3.13;2.83;;;5.30;99.90;;;;;;5030517;28;20732;-70
2021/12/01 02:50:52;;;;;;;4.80;3.10;;;5.30;99.90;;;;;;5028608;28;20212;-72
2021/12/01 02:53:23;;;;;;;4.10;3.47;;;5.40;99.90;;;;;;5029805;28;20196;-70
2021/12/01 02:56:07;;;;;;;4.87;3.37;;;5.40;99.90;;;;;;5028380;28;20787;-70
2021/12/01 02:58:40;;;;;;;4.77;3.30;;;5.40;99.90;;;;;;5028922;28;20543;-70
2021/12/01 03:01:12;;;;;;;5.13;3.03;;;5.40;99.90;;;;;;5024495;28;20428;-70
2021/12/01 03:03:39;;;;;;;4.20;3.00;;;5.50;99.90;;;;;;5028410;28;20533;-71
2021/12/01 03:06:05;;;;;;;4.67;2.90;;;5.90;99.90;;;;;;5034654;28;20435;-69
2021/12/01 03:08:31;;;;;;;5.53;3.13;;;5.60;99.90;;;;;;5036602;28;20443;-71
2021/12/01 03:10:57;;;;;;;7.93;3.40;;;5.60;99.90;;;;;;5029731;28;20617;-73
2021/12/01 03:13:24;;;;;;;3.77;2.83;;;6.00;99.90;;;;;;5029649;28;20608;-69
2021/12/01 03:15:50;;;;;;;4.53;3.10;;;5.70;99.90;;;;;;5029937;28;20170;-70
2021/12/01 03:18:16;;;;;;;6.20;3.03;;;5.70;99.90;;;;;;5028368;28;20810;-70
2021/12/01 03:20:42;;;;;;;2.90;2.60;;;5.70;99.90;;;;;;5029759;28;20516;-70
2021/12/01 03:23:09;;;;;;;6.13;2.70;;;5.70;99.90;;;;;;5029584;28;20713;-74
2021/12/01 03:25:36;;;;;;;7.13;2.80;;;6.10;99.90;;;;;;5029602;28;20421;-71
2021/12/01 03:28:02;;;;;;;3.10;2.70;;;5.70;99.90;;;;;;5029781;28;20452;-70
2021/12/01 03:30:33;;;;;;;3.23;2.80;;;5.70;99.90;;;;;;5028840;28;20554;-70
2021/12/01 03:33:00;;;;;;;3.27;2.50;;;5.70;99.90;;;;;;5029307;28;20424;-70
2021/12/01 03:35:25;;;;;;;5.70;2.97;;;5.70;99.90;;;;;;5029282;28;20443;-69
2021/12/01 03:37:51;;;;;;;3.50;2.43;;;5.70;99.90;;;;;;5037872;28;20428;-70
2021/12/01 03:40:16;;;;;;;2.90;2.60;;;5.80;99.90;;;;;;5028699;28;20238;-70
2021/12/01 03:42:45;;;;;;;2.87;2.60;;;5.70;99.90;;;;;;5029284;28;20516;-70
2021/12/01 03:45:12;;;;;;;6.53;2.77;;;6.10;99.90;;;;;;5029126;28;20221;-70
2021/12/01 03:47:38;;;;;;;2.70;2.30;;;5.40;99.90;;;;;;5029616;28;20444;-69
2021/12/01 03:50:05;;;;;;;3.13;2.60;;;5.80;99.90;;;;;;5027528;28;20790;-71
2021/12/01 03:52:30;;;;;;;4.03;2.57;;;5.80;99.90;;;;;;5028776;28;20170;-70
2021/12/01 03:54:56;;;;;;;3.53;2.37;;;5.80;99.90;;;;;;5027768;28;20424;-70
2021/12/01 03:57:22;;;;;;;5.03;2.43;;;5.80;99.90;;;;;;5027705;28;20479;-70
2021/12/01 03:59:48;;;;;;;3.67;2.50;;;5.80;99.90;;;;;;5028125;28;20178;-72
2021/12/01 04:02:14;;;;;;;4.10;2.43;;;5.80;99.90;;;;;;5026954;28;20192;-70
2021/12/01 04:04:39;;;;;;;2.63;2.33;;;5.90;99.90;;;;;;5028743;28;20184;-70
2021/12/01 04:07:06;;;;;;;2.77;2.30;;;5.90;99.90;;;;;;5036201;28;20444;-70
2021/12/01 04:09:32;;;;;;;2.33;2.13;;;5.90;99.90;;;;;;5037638;28;20200;-69
2021/12/01 04:11:58;;;;;;;2.50;2.10;;;5.90;99.90;;;;;;5022479;28;20472;-70
2021/12/01 04:14:23;;;;;;;3.03;2.60;;;5.90;99.90;;;;;;5028057;28;20428;-70
2021/12/01 04:16:49;;;;;;;3.13;2.33;;;6.00;99.90;;;;;;5029427;28;20571;-72
2021/12/01 04:19:15;;;;;;;3.20;2.40;;;6.00;99.90;;;;;;5028016;28;20269;-73
2021/12/01 04:21:41;;;;;;;3.90;2.30;;;6.00;99.90;;;;;;5028311;28;20436;-70
2021/12/01 04:24:07;;;;;;;3.20;2.70;;;6.00;99.90;;;;;;5025515;28;20240;-69
2021/12/01 04:26:33;;;;;;;3.23;2.50;;;6.10;99.90;;;;;;5028005;28;20436;-70
2021/12/01 04:29:00;;;;;;;3.30;2.40;;;6.10;99.90;;;;;;5026972;28;20865;-69
2021/12/01 04:31:28;;;;;;;4.00;2.67;;;6.10;99.90;;;;;;5027900;28;20467;-70
2021/12/01 04:33:55;;;;;;;3.60;2.47;;;6.10;99.90;;;;;;5028609;28;20443;-70
2021/12/01 04:36:26;;;;;;;2.43;2.20;;;6.20;99.90;;;;;;5028407;28;20519;-71
2021/12/01 04:38:52;;;;;;;2.70;2.17;;;6.20;99.90;;;;;;5030735;28;20436;-70
2021/12/01 04:41:18;;;;;;;3.47;2.30;;;6.60;99.90;;;;;;5027816;28;20441;-69
2021/12/01 04:43:44;;;;;;;3.43;2.00;;;6.20;99.90;;;;;;5028630;28;20512;-70
2021/12/01 04:46:15;;;;;;;3.47;2.37;;;6.30;99.90;;;;;;5027821;28;20547;-70
2021/12/01 04:48:40;;;;;;;5.33;2.03;;;6.30;99.90;;;;;;5027995;28;20205;-72
2021/12/01 04:51:06;;;;;;;4.53;2.27;;;6.30;99.90;;;;;;5026542;28;20804;-68
2021/12/01 04:53:32;;;;;;;2.63;2.00;;;6.40;99.90;;;;;;5027998;28;20209;-71
2021/12/01 04:55:58;;;;;;;7.83;1.80;;;6.40;99.90;;;;;;5028415;28;20162;-70
2021/12/01 04:58:24;;;;;;;3.57;1.70;;;6.50;99.90;;;;;;5027709;28;20774;-72
2021/12/01 05:00:49;;;;;;;4.40;1.80;;;6.50;99.90;;;;;;5027077;28;20189;-70
2021/12/01 05:03:15;;;;;;;2.57;1.87;;;6.50;99.90;;;;;;5027562;28;20182;-70
2021/12/01 05:05:40;;;;;;;2.50;1.67;;;6.60;99.90;;;;;;5029046;28;20213;-70
2021/12/01 05:08:06;;;;;;;2.70;1.90;;;6.70;99.90;;;;;;5037628;28;20663;-72
2021/12/01 05:10:31;;;;;;;2.80;1.50;;;6.70;99.90;;;;;;5027449;28;20417;-70
2021/12/01 05:12:57;;;;;;;2.00;1.80;;;6.70;99.90;;;;;;5028326;28;20254;-73
2021/12/01 05:15:22;;;;;;;1.87;1.70;;;6.70;99.90;;;;;;5027132;28;20363;-72
2021/12/01 05:17:49;;;;;;;3.00;1.80;;;6.70;99.90;;;;;;5025874;28;20198;-69
2021/12/01 05:20:15;;;;;;;1.60;1.50;;;6.70;99.90;;;;;;5026578;28;20174;-72
2021/12/01 05:22:42;;;;;;;5.40;1.70;;;6.80;99.90;;;;;;5027823;28;20414;-70
2021/12/01 05:25:08;;;;;;;1.60;1.50;;;6.90;99.90;;;;;;5027073;28;20236;-70
2021/12/01 05:27:34;;;;;;;1.30;1.20;;;6.80;99.90;;;;;;5027245;28;20851;-70
2021/12/01 05:29:59;;;;;;;3.63;1.83;;;6.90;99.90;;;;;;5026902;28;20493;-70
2021/12/01 05:32:26;;;;;;;4.80;1.77;;;7.10;99.90;;;;;;5026127;28;20675;-69
2021/12/01 05:34:51;;;;;;;2.20;1.50;;;6.90;99.90;;;;;;5026962;28;20738;-71
2021/12/01 05:37:17;;;;;;;2.37;1.70;;;7.00;99.90;;;;;;5035170;28;20527;-70
2021/12/01 05:39:45;;;;;;;1.40;1.30;;;7.00;99.90;;;;;;5034665;28;20227;-70
2021/12/01 05:42:14;;;;;;;3.80;2.47;;;7.10;99.90;;;;;;5027982;28;20334;-71
2021/12/01 05:44:40;;;;;;;1.77;1.40;;;7.10;99.90;;;;;;5026761;28;21018;-71
2021/12/01 05:47:06;;;;;;;1.33;1.23;;;7.20;99.90;;;;;;5027229;28;20491;-70
2021/12/01 05:49:32;;;;;;;2.20;1.37;;;7.20;99.90;;;;;;5027045;28;20931;-70
2021/12/01 05:51:59;;;;;;;1.83;1.40;;;7.60;99.90;;;;;;5027484;28;20514;-70
2021/12/01 05:54:25;;;;;;;1.03;0.93;;;7.40;99.90;;;;;;5026664;28;20506;-72
2021/12/01 05:56:52;;;;;;;1.20;1.07;;;7.30;99.90;;;;;;5025651;28;20830;-71
2021/12/01 05:59:17;;;;;;;3.13;2.00;;;7.30;99.90;;;;;;5026434;28;20518;-71
2021/12/01 06:01:43;;;;;;;2.20;1.50;;;7.30;99.90;;;;;;5025951;28;20923;-72
2021/12/01 06:04:09;;;;;;;1.60;1.50;;;7.40;99.90;;;;;;5026604;28;20580;-70
2021/12/01 06:06:34;;;;;;;2.00;1.23;;;7.40;99.90;;;;;;5033914;28;20189;-71
2021/12/01 06:09:00;;;;;;;2.50;1.50;;;7.40;99.90;;;;;;5033095;28;20206;-71
2021/12/01 06:11:25;;;;;;;2.60;1.40;;;7.50;99.90;;;;;;5027222;28;20202;-70
2021/12/01 06:13:52;;;;;;;2.60;1.33;;;7.50;99.90;;;;;;5026747;28;20193;-69
2021/12/01 06:16:22;;;;;;;1.40;1.30;;;7.50;99.90;;;;;;5026234;28;20263;-74
2021/12/01 06:18:49;;;;;;;1.40;1.30;;;7.50;99.90;;;;;;5026822;28;20416;-70
2021/12/01 06:21:15;;;;;;;2.30;1.40;;;7.50;99.90;;;;;;5026751;28;20429;-72
2021/12/01 06:23:40;;;;;;;2.43;1.30;;;7.40;99.90;;;;;;5024711;28;20452;-72
2021/12/01 06:26:06;;;;;;;2.60;1.40;;;7.50;99.90;;;;;;5025826;28;20951;-70
2021/12/01 06:28:31;;;;;;;1.30;1.20;;;7.40;99.90;;;;;;5024674;28;20629;-72
2021/12/01 06:30:57;;;;;;;1.83;1.00;;;7.40;99.90;;;;;;5025378;28;20220;-71
2021/12/01 06:33:23;;;;;;;3.50;1.40;;;7.40;99.90;;;;;;5026255;28;20654;-70
2021/12/01 06:35:49;;;;;;;1.67;1.20;;;7.40;99.90;;;;;;5025659;28;20722;-71
2021/12/01 06:38:16;;;;;;;1.40;1.30;;;7.40;99.90;;;;;;5026985;28;21040;-69
2021/12/01 06:40:42;;;;;;;1.40;1.30;;;7.40;99.90;;;;;;5026491;28;20527;-70
2021/12/01 06:43:08;;;;;;;2.10;1.40;;;7.40;99.90;;;;;;5025242;28;20589;-74
2021/12/01 06:45:33;;;;;;;4.20;1.40;;;7.40;99.90;;;;;;5026783;28;20185;-69
2021/12/01 06:47:59;;;;;;;4.50;1.30;;;7.40;99.90;;;;;;5026253;28;20204;-71
